Impacts METAR Board
IDs:

KSEA - Seattle-Tacoma Intl, WA, US

Updated at: 2200 UTC 02 Oct 2022
Potential Impact None Slight Moderate High
Time 02/10Z 02/11Z 02/12Z 02/13Z 02/14Z 02/15Z 02/16Z 02/17Z 02/18Z 02/19Z 02/20Z 02/21Z 02/22Z
Temp59 58 55 57 56 57 62 66 70 72 76 77 78
Dewpt52 52 51 52 52 52 53 53 53 54 52 53 53
Altim29.94 29.94 29.94 29.95 29.96 29.98 29.99 30.00 30.00 30.00 29.99 29.98 29.97
VIS10 10 10 10 10 9 8 7 8 7 7 8 8
CIG-- -- -- -- -- -- -- -- -- -- -- -- --
CoverCLRCLRCLRCLRCLRCLRCLRCLRCLRCLRCLRCLRCLR
FltCatVFRVFRVFRVFRVFRVFRVFRVFRVFRVFRVFRVFRVFR
WX--------------------------
WDir00203301004010320010300290
WSpd0 0 3 4 3 0 5 8 5 3 6 5 5
WGst-- -- -- -- -- -- -- -- -- -- -- -- --
Raw hourly METARs
KSEA 020953Z 00000KT 10SM CLR 15/11 A2994 RMK AO2 SLP142 T01500111
KSEA 021053Z 00000KT 10SM CLR 14/11 A2994 RMK AO2 SLP143 T01440111
KSEA 021153Z 02003KT 10SM CLR 13/11 A2994 RMK AO2 SLP143 T01280106 10178 20128 51004
KSEA 021253Z 33004KT 10SM CLR 14/11 A2995 RMK AO2 SLP147 T01390111
KSEA 021353Z 01003KT 10SM CLR 13/11 A2996 RMK AO2 SLP152 T01330111
KSEA 021453Z 00000KT 9SM CLR 14/11 A2998 RMK AO2 SLP156 T01390111 52011
KSEA 021553Z 04005KT 8SM CLR 17/12 A2999 RMK AO2 SLP159 T01670117
KSEA 021653Z 01008KT 7SM CLR 19/12 A3000 RMK AO2 SLP162 T01890117
KSEA 021753Z 32005KT 8SM CLR 21/12 A3000 RMK AO2 SLP164 T02110117 10211 20128 51009
KSEA 021853Z VRB03KT 7SM CLR 22/12 A3000 RMK AO2 SLP162 T02220122
KSEA 021953Z 01006KT 7SM CLR 24/11 A2999 RMK AO2 SLP160 T02440111
KSEA 022053Z 30005KT 8SM CLR 25/12 A2998 RMK AO2 SLP157 T02500117 58007
KSEA 022153Z 29005KT 8SM CLR 26/12 A2997 RMK AO2 SLP153 T02560117



Page loaded:  22:52 UTC  |   03:52 PM Pacific  |   04:52 PM Mountain  |   05:52 PM Central  |   06:52 PM Eastern

 

ADVISORIES

FORECASTS

FORECASTS

OBSERVATIONS

USER TOOLS

ABOUT US